Time;durP1;ratioP1;P1;durP2;ratioP2;P2;SDS_P1;SDS_P2;PMS_P1;PMS_P2;Temp;Humidity;BMP_temperature;BMP_pressure;BME280_temperature;BME280_humidity;BME280_pressure;Samples;Min_cycle;Max_cycle;Signal;HPM_P1;HPM_P2
2021/07/18 00:01:03;;;;;;;6.37;5.53;;;;;;;;;;492411;240;27552;-71
2021/07/18 00:03:05;;;;;;;7.27;5.77;;;;;;;;;;492386;240;27946;-71
2021/07/18 00:05:07;;;;;;;6.17;5.57;;;;;;;;;;492400;240;27478;-69
2021/07/18 00:07:09;;;;;;;10.20;5.90;;;;;;;;;;492395;240;27948;-69
2021/07/18 00:09:12;;;;;;;6.53;5.83;;;;;;;;;;492387;240;27586;-72
2021/07/18 00:11:14;;;;;;;6.70;5.50;;;;;;;;;;492374;240;27943;-70
2021/07/18 00:13:17;;;;;;;6.23;5.63;;;;;;;;;;492361;240;27574;-70
2021/07/18 00:15:18;;;;;;;6.97;6.27;;;;;;;;;;492300;240;27929;-70
2021/07/18 00:17:20;;;;;;;7.20;5.83;;;;;;;;;;492372;240;27468;-72
2021/07/18 00:19:22;;;;;;;6.50;5.07;;;;;;;;;;492310;240;28133;-72
2021/07/18 00:21:24;;;;;;;5.80;5.27;;;;;;;;;;492387;240;27513;-70
2021/07/18 00:23:26;;;;;;;5.70;5.10;;;;;;;;;;492348;240;28815;-69
2021/07/18 00:25:28;;;;;;;6.10;5.50;;;;;;;;;;492376;241;27502;-69
2021/07/18 00:27:31;;;;;;;5.20;4.50;;;;;;;;;;492377;241;28066;-70
2021/07/18 00:29:33;;;;;;;4.80;4.40;;;;;;;;;;492369;240;27526;-70
2021/07/18 00:31:36;;;;;;;4.83;4.27;;;;;;;;;;492380;240;28001;-71
2021/07/18 00:33:37;;;;;;;5.43;4.50;;;;;;;;;;492303;241;27615;-70
2021/07/18 00:35:39;;;;;;;4.87;4.37;;;;;;;;;;492375;240;27974;-70
2021/07/18 00:37:41;;;;;;;6.60;4.70;;;;;;;;;;492366;240;27600;-71
2021/07/18 00:39:43;;;;;;;6.10;3.93;;;;;;;;;;492353;241;28012;-70
2021/07/18 00:41:45;;;;;;;7.10;4.13;;;;;;;;;;492361;240;27597;-72
2021/07/18 00:43:47;;;;;;;5.53;4.73;;;;;;;;;;492354;240;27985;-70
2021/07/18 00:45:50;;;;;;;4.00;3.60;;;;;;;;;;492364;240;27510;-70
2021/07/18 00:47:52;;;;;;;6.00;4.60;;;;;;;;;;492371;240;27975;-71
2021/07/18 00:49:54;;;;;;;6.30;3.63;;;;;;;;;;492375;240;27506;-70
2021/07/18 00:51:56;;;;;;;4.13;3.73;;;;;;;;;;492294;240;27953;-72
2021/07/18 00:53:58;;;;;;;4.10;3.70;;;;;;;;;;492377;240;27494;-72
2021/07/18 00:56:00;;;;;;;6.23;4.03;;;;;;;;;;492135;241;27962;-72
2021/07/18 00:58:03;;;;;;;4.50;4.10;;;;;;;;;;492277;240;27485;-70
2021/07/18 01:00:04;;;;;;;3.67;3.37;;;;;;;;;;492332;240;27967;-71
2021/07/18 01:02:06;;;;;;;3.60;3.30;;;;;;;;;;492369;240;27486;-70
2021/07/18 01:04:09;;;;;;;6.63;3.97;;;;;;;;;;492343;240;27486;-70
2021/07/18 01:06:11;;;;;;;6.60;4.00;;;;;;;;;;492315;241;27587;-71
2021/07/18 01:08:13;;;;;;;4.63;4.03;;;;;;;;;;492352;240;27570;-70
2021/07/18 01:10:15;;;;;;;7.60;4.30;;;;;;;;;;492362;240;27511;-72
2021/07/18 01:12:17;;;;;;;6.33;3.93;;;;;;;;;;492363;240;27480;-70
2021/07/18 01:14:19;;;;;;;4.20;3.20;;;;;;;;;;492361;240;27550;-72
2021/07/18 01:16:21;;;;;;;4.87;4.17;;;;;;;;;;492395;240;27940;-70
2021/07/18 01:18:23;;;;;;;4.80;3.87;;;;;;;;;;492402;240;27605;-71
2021/07/18 01:20:26;;;;;;;5.17;3.53;;;;;;;;;;492402;240;28784;-69
2021/07/18 01:22:28;;;;;;;4.60;4.07;;;;;;;;;;492385;240;27507;-70
2021/07/18 01:24:30;;;;;;;4.13;3.73;;;;;;;;;;492381;240;28064;-69
2021/07/18 01:26:32;;;;;;;3.80;3.50;;;;;;;;;;492396;240;27535;-71
2021/07/18 01:28:34;;;;;;;4.77;3.57;;;;;;;;;;492388;240;28091;-71
2021/07/18 01:30:36;;;;;;;5.00;3.20;;;;;;;;;;492384;240;27510;-71
2021/07/18 01:32:38;;;;;;;6.00;3.87;;;;;;;;;;492379;240;27530;-70
2021/07/18 01:34:40;;;;;;;6.30;3.47;;;;;;;;;;492396;240;27521;-70
2021/07/18 01:36:42;;;;;;;4.70;3.40;;;;;;;;;;492372;240;27510;-70
2021/07/18 01:38:45;;;;;;;3.90;3.40;;;;;;;;;;492399;240;27527;-70
2021/07/18 01:40:47;;;;;;;4.40;3.73;;;;;;;;;;492381;240;27511;-70
2021/07/18 01:42:49;;;;;;;9.20;3.77;;;;;;;;;;492385;240;27519;-71
2021/07/18 01:44:51;;;;;;;3.57;3.27;;;;;;;;;;492385;240;27598;-71
2021/07/18 01:46:53;;;;;;;3.57;3.27;;;;;;;;;;492397;240;27522;-71
2021/07/18 01:48:55;;;;;;;5.67;3.60;;;;;;;;;;492388;240;27593;-70
2021/07/18 01:50:57;;;;;;;4.03;3.53;;;;;;;;;;492367;240;27518;-70
2021/07/18 01:52:59;;;;;;;4.90;3.50;;;;;;;;;;492387;240;27506;-71
2021/07/18 01:55:01;;;;;;;3.17;2.97;;;;;;;;;;492373;240;27555;-71
2021/07/18 01:57:04;;;;;;;3.60;3.30;;;;;;;;;;492398;240;27914;-70
2021/07/18 01:59:06;;;;;;;3.73;3.43;;;;;;;;;;492384;240;27561;-72
2021/07/18 02:01:08;;;;;;;3.50;3.20;;;;;;;;;;492404;240;28046;-70
2021/07/18 02:03:10;;;;;;;4.13;3.10;;;;;;;;;;492392;240;27558;-70
2021/07/18 02:05:12;;;;;;;3.30;3.00;;;;;;;;;;492391;241;28050;-70
2021/07/18 02:07:16;;;;;;;3.10;2.80;;;;;;;;;;492398;240;27484;-70
2021/07/18 02:09:16;;;;;;;3.80;3.50;;;;;;;;;;492310;240;27972;-70
2021/07/18 02:11:18;;;;;;;3.30;3.00;;;;;;;;;;492353;241;27488;-70
2021/07/18 02:13:20;;;;;;;4.40;3.00;;;;;;;;;;492382;240;27922;-71
2021/07/18 02:15:23;;;;;;;2.93;2.70;;;;;;;;;;492437;240;27482;-71
2021/07/18 02:17:25;;;;;;;3.73;3.40;;;;;;;;;;492395;240;28717;-70
2021/07/18 02:19:27;;;;;;;3.63;3.20;;;;;;;;;;492382;240;27522;-72
2021/07/18 02:21:29;;;;;;;5.27;3.00;;;;;;;;;;492324;241;28062;-70
2021/07/18 02:23:31;;;;;;;4.10;3.47;;;;;;;;;;492390;241;27563;-69
2021/07/18 02:25:33;;;;;;;4.73;3.53;;;;;;;;;;492323;241;28060;-72
2021/07/18 02:27:35;;;;;;;3.10;2.83;;;;;;;;;;492355;240;27535;-70
2021/07/18 02:29:38;;;;;;;4.00;2.90;;;;;;;;;;492389;240;27994;-70
2021/07/18 02:31:40;;;;;;;3.10;2.90;;;;;;;;;;492336;240;27600;-70
2021/07/18 02:33:42;;;;;;;3.23;2.93;;;;;;;;;;492366;241;28067;-70
2021/07/18 02:35:44;;;;;;;3.30;3.00;;;;;;;;;;492377;240;27517;-70
2021/07/18 02:37:46;;;;;;;3.60;2.93;;;;;;;;;;492382;240;27996;-70
2021/07/18 02:39:48;;;;;;;3.03;2.77;;;;;;;;;;492376;240;27502;-71
2021/07/18 02:41:50;;;;;;;4.70;3.03;;;;;;;;;;492382;240;28061;-71
2021/07/18 02:43:52;;;;;;;3.27;3.00;;;;;;;;;;492381;240;27621;-70
2021/07/18 02:45:54;;;;;;;3.00;2.80;;;;;;;;;;492367;240;28056;-70
2021/07/18 02:47:56;;;;;;;3.50;3.00;;;;;;;;;;492380;241;27522;-69
2021/07/18 02:49:59;;;;;;;3.50;3.20;;;;;;;;;;492353;241;27561;-69
2021/07/18 02:52:01;;;;;;;2.90;2.70;;;;;;;;;;492352;241;27485;-69
2021/07/18 02:54:03;;;;;;;3.67;3.30;;;;;;;;;;492371;241;27506;-69
2021/07/18 02:56:05;;;;;;;3.73;3.43;;;;;;;;;;492393;240;27553;-70
2021/07/18 02:58:07;;;;;;;5.93;3.07;;;;;;;;;;492371;240;27494;-70
2021/07/18 03:00:09;;;;;;;3.33;3.03;;;;;;;;;;492385;240;27593;-70
2021/07/18 03:02:11;;;;;;;3.20;2.90;;;;;;;;;;492374;241;28002;-70
2021/07/18 03:04:13;;;;;;;2.87;2.67;;;;;;;;;;490809;236;27436;-70
2021/07/18 03:06:16;;;;;;;3.53;3.07;;;;;;;;;;489041;243;27889;-70
2021/07/18 03:08:18;;;;;;;2.60;2.40;;;;;;;;;;489052;243;27475;-70
2021/07/18 03:10:20;;;;;;;4.70;2.93;;;;;;;;;;489051;243;27918;-70
2021/07/18 03:12:22;;;;;;;3.53;3.23;;;;;;;;;;489041;242;27401;-70
2021/07/18 03:14:24;;;;;;;2.87;2.67;;;;;;;;;;489049;243;27835;-70
2021/07/18 03:16:26;;;;;;;3.33;3.03;;;;;;;;;;489037;243;27441;-71
2021/07/18 03:18:28;;;;;;;3.47;2.90;;;;;;;;;;488961;243;27424;-71
2021/07/18 03:20:30;;;;;;;3.03;2.83;;;;;;;;;;489026;243;27495;-71
2021/07/18 03:22:32;;;;;;;2.90;2.70;;;;;;;;;;489038;243;27882;-71
2021/07/18 03:24:34;;;;;;;3.30;3.00;;;;;;;;;;489034;243;27428;-70
2021/07/18 03:26:37;;;;;;;3.53;3.23;;;;;;;;;;489030;242;27607;-71
2021/07/18 03:28:39;;;;;;;2.83;2.63;;;;;;;;;;488887;243;27455;-71
2021/07/18 03:30:41;;;;;;;3.73;2.50;;;;;;;;;;488887;243;27420;-71
2021/07/18 03:32:43;;;;;;;2.87;2.67;;;;;;;;;;488802;243;27503;-71
2021/07/18 03:34:45;;;;;;;3.10;2.43;;;;;;;;;;489018;243;27499;-71
2021/07/18 03:36:47;;;;;;;3.90;2.70;;;;;;;;;;489033;243;27539;-71
2021/07/18 03:38:49;;;;;;;3.30;3.10;;;;;;;;;;489034;243;27425;-71
2021/07/18 03:40:52;;;;;;;3.23;2.93;;;;;;;;;;489043;243;27488;-71
2021/07/18 03:42:53;;;;;;;2.60;2.40;;;;;;;;;;489029;243;27409;-71
2021/07/18 03:44:56;;;;;;;2.57;2.37;;;;;;;;;;489041;243;27424;-71
2021/07/18 03:46:58;;;;;;;3.80;2.43;;;;;;;;;;489048;243;27384;-71
2021/07/18 03:49:00;;;;;;;2.80;2.60;;;;;;;;;;489029;243;27502;-71
2021/07/18 03:51:02;;;;;;;5.40;2.30;;;;;;;;;;489043;243;27589;-71
2021/07/18 03:53:04;;;;;;;2.80;2.60;;;;;;;;;;489039;243;27498;-71
2021/07/18 03:55:06;;;;;;;2.40;2.20;;;;;;;;;;489037;243;27616;-71
2021/07/18 03:57:08;;;;;;;2.60;2.40;;;;;;;;;;489039;243;27380;-70
2021/07/18 03:59:10;;;;;;;2.80;2.60;;;;;;;;;;488996;243;27376;-70
2021/07/18 04:01:13;;;;;;;3.00;2.80;;;;;;;;;;489066;243;27432;-71
2021/07/18 04:03:15;;;;;;;4.20;2.90;;;;;;;;;;489011;243;27501;-70
2021/07/18 04:05:17;;;;;;;3.00;2.77;;;;;;;;;;489021;243;27492;-70
2021/07/18 04:07:19;;;;;;;2.77;2.47;;;;;;;;;;489035;243;27452;-71
2021/07/18 04:09:21;;;;;;;2.60;2.40;;;;;;;;;;489031;243;27409;-70
2021/07/18 04:11:23;;;;;;;3.33;3.03;;;;;;;;;;489034;243;27809;-69
2021/07/18 04:13:25;;;;;;;3.20;2.90;;;;;;;;;;489035;243;27560;-70
2021/07/18 04:15:27;;;;;;;4.17;3.20;;;;;;;;;;489030;243;27405;-69
2021/07/18 04:17:29;;;;;;;2.83;2.63;;;;;;;;;;488668;243;27482;-69
2021/07/18 04:19:32;;;;;;;2.90;2.70;;;;;;;;;;489030;242;27510;-69
2021/07/18 04:21:34;;;;;;;2.87;2.67;;;;;;;;;;489041;243;27507;-70
2021/07/18 04:23:36;;;;;;;2.83;2.63;;;;;;;;;;489042;243;27420;-69
2021/07/18 04:25:38;;;;;;;3.07;2.80;;;;;;;;;;489016;243;27512;-70
2021/07/18 04:27:40;;;;;;;2.83;2.63;;;;;;;;;;489025;243;27936;-70
2021/07/18 04:29:42;;;;;;;3.07;2.87;;;;;;;;;;489037;243;27522;-70
2021/07/18 04:31:44;;;;;;;2.97;2.77;;;;;;;;;;489034;243;27511;-69
2021/07/18 04:33:49;;;;;;;2.63;2.43;;;;;;;;;;489020;243;27459;-69
2021/07/18 04:35:48;;;;;;;3.40;3.10;;;;;;;;;;488892;243;27542;-71
2021/07/18 04:37:51;;;;;;;3.07;2.80;;;;;;;;;;489018;243;27982;-70
2021/07/18 04:39:53;;;;;;;2.77;2.57;;;;;;;;;;489028;243;27413;-69
2021/07/18 04:41:55;;;;;;;3.23;2.60;;;;;;;;;;489027;243;27557;-70
2021/07/18 04:43:57;;;;;;;2.60;2.40;;;;;;;;;;489004;243;27416;-70
2021/07/18 04:45:59;;;;;;;4.47;2.60;;;;;;;;;;489024;243;27432;-70
2021/07/18 04:48:01;;;;;;;3.10;2.90;;;;;;;;;;489027;243;27393;-70
2021/07/18 04:50:03;;;;;;;3.60;3.30;;;;;;;;;;489060;243;27419;-70
2021/07/18 04:52:06;;;;;;;2.60;2.40;;;;;;;;;;489046;243;27478;-70
2021/07/18 04:54:07;;;;;;;2.83;2.63;;;;;;;;;;489051;243;27409;-70
2021/07/18 04:56:10;;;;;;;3.20;2.90;;;;;;;;;;489066;243;27381;-70
2021/07/18 04:58:12;;;;;;;2.83;2.63;;;;;;;;;;489060;243;27401;-71
2021/07/18 05:00:14;;;;;;;2.93;2.73;;;;;;;;;;489061;243;27492;-70
2021/07/18 05:02:16;;;;;;;2.90;2.70;;;;;;;;;;488868;243;27536;-70
2021/07/18 05:04:18;;;;;;;2.60;2.40;;;;;;;;;;489049;243;27464;-71
2021/07/18 05:06:20;;;;;;;3.23;2.93;;;;;;;;;;489570;242;27491;-70
2021/07/18 05:08:22;;;;;;;2.77;2.57;;;;;;;;;;491054;241;27365;-69
2021/07/18 05:10:24;;;;;;;3.07;2.50;;;;;;;;;;491084;241;27382;-70
2021/07/18 05:12:26;;;;;;;3.50;2.47;;;;;;;;;;491083;241;27383;-70
2021/07/18 05:14:29;;;;;;;5.03;3.20;;;;;;;;;;491066;241;27406;-72
2021/07/18 05:16:31;;;;;;;4.80;2.30;;;;;;;;;;491060;241;27497;-70
2021/07/18 05:18:33;;;;;;;2.80;2.43;;;;;;;;;;491063;241;27869;-72
2021/07/18 05:20:35;;;;;;;2.93;2.67;;;;;;;;;;491076;241;27407;-71
2021/07/18 05:22:37;;;;;;;5.77;2.67;;;;;;;;;;491070;241;27889;-69
2021/07/18 05:24:39;;;;;;;5.43;3.00;;;;;;;;;;491060;241;27446;-71
2021/07/18 05:26:41;;;;;;;2.60;2.40;;;;;;;;;;491063;241;27945;-69
2021/07/18 05:28:43;;;;;;;4.00;2.57;;;;;;;;;;491057;241;27410;-71
2021/07/18 05:30:46;;;;;;;3.00;2.67;;;;;;;;;;491073;241;28000;-71
2021/07/18 05:32:48;;;;;;;3.00;2.30;;;;;;;;;;491067;241;27489;-71
2021/07/18 05:34:50;;;;;;;2.70;2.50;;;;;;;;;;491059;241;27874;-69
2021/07/18 05:36:52;;;;;;;2.80;2.13;;;;;;;;;;491060;241;27407;-71
2021/07/18 05:38:54;;;;;;;4.10;3.00;;;;;;;;;;491063;241;27983;-70
2021/07/18 05:40:56;;;;;;;2.90;2.70;;;;;;;;;;491054;241;27427;-70
2021/07/18 05:42:58;;;;;;;3.33;2.97;;;;;;;;;;491047;241;27869;-70
2021/07/18 05:45:00;;;;;;;4.50;3.13;;;;;;;;;;491063;241;27381;-72
2021/07/18 05:47:02;;;;;;;4.87;3.10;;;;;;;;;;491038;241;27830;-70
2021/07/18 05:49:05;;;;;;;5.03;3.07;;;;;;;;;;491079;241;27466;-69
2021/07/18 05:51:07;;;;;;;2.90;2.70;;;;;;;;;;491018;241;27858;-70
2021/07/18 05:53:10;;;;;;;3.17;2.87;;;;;;;;;;491036;241;27422;-69
2021/07/18 05:55:11;;;;;;;4.43;3.00;;;;;;;;;;490927;241;27877;-70
2021/07/18 05:57:13;;;;;;;3.23;2.77;;;;;;;;;;491011;241;27377;-70
2021/07/18 05:59:15;;;;;;;5.40;3.13;;;;;;;;;;491014;241;27857;-70
2021/07/18 06:01:17;;;;;;;3.27;2.70;;;;;;;;;;490997;241;27473;-72
2021/07/18 06:03:19;;;;;;;2.90;2.50;;;;;;;;;;491015;241;27912;-69
2021/07/18 06:05:21;;;;;;;3.53;2.67;;;;;;;;;;491015;241;27382;-73
2021/07/18 06:07:24;;;;;;;3.37;2.70;;;;;;;;;;491016;241;27815;-71
2021/07/18 06:09:26;;;;;;;3.10;2.57;;;;;;;;;;491036;241;27418;-71
2021/07/18 06:11:28;;;;;;;4.33;2.60;;;;;;;;;;491011;241;27866;-70
2021/07/18 06:13:30;;;;;;;4.07;2.27;;;;;;;;;;491066;241;27380;-69
2021/07/18 06:15:32;;;;;;;3.70;2.80;;;;;;;;;;491054;241;28110;-70
2021/07/18 06:17:35;;;;;;;3.70;2.80;;;;;;;;;;491069;241;27419;-70
2021/07/18 06:19:36;;;;;;;3.10;2.80;;;;;;;;;;490990;242;27996;-71
2021/07/18 06:21:38;;;;;;;2.87;2.50;;;;;;;;;;491069;241;27430;-71
2021/07/18 06:23:42;;;;;;;2.73;2.53;;;;;;;;;;491061;241;27970;-70
2021/07/18 06:25:43;;;;;;;2.67;2.40;;;;;;;;;;491001;241;27454;-71
2021/07/18 06:27:46;;;;;;;2.80;2.53;;;;;;;;;;491045;241;27923;-71
2021/07/18 06:29:47;;;;;;;4.87;2.80;;;;;;;;;;490988;241;27419;-71
2021/07/18 06:31:49;;;;;;;4.17;2.93;;;;;;;;;;491069;241;27881;-71
2021/07/18 06:33:51;;;;;;;8.17;3.50;;;;;;;;;;491064;241;27410;-71
2021/07/18 06:35:53;;;;;;;4.27;2.73;;;;;;;;;;491073;241;27878;-69
2021/07/18 06:37:55;;;;;;;2.60;2.33;;;;;;;;;;491031;241;27489;-70
2021/07/18 06:39:57;;;;;;;4.00;2.53;;;;;;;;;;491064;241;28006;-70
2021/07/18 06:42:00;;;;;;;3.57;2.63;;;;;;;;;;491065;241;27517;-70
2021/07/18 06:44:02;;;;;;;3.73;2.80;;;;;;;;;;491046;241;27987;-70
2021/07/18 06:46:04;;;;;;;2.83;2.63;;;;;;;;;;491045;241;27471;-71
2021/07/18 06:48:06;;;;;;;3.77;3.37;;;;;;;;;;491027;242;27907;-70
2021/07/18 06:50:08;;;;;;;2.70;2.50;;;;;;;;;;491076;241;27367;-71
2021/07/18 06:52:11;;;;;;;2.97;2.77;;;;;;;;;;491061;241;27833;-71
2021/07/18 06:54:12;;;;;;;3.13;2.80;;;;;;;;;;491016;241;27379;-70
2021/07/18 06:56:14;;;;;;;2.90;2.70;;;;;;;;;;491081;241;27845;-70
2021/07/18 06:58:16;;;;;;;4.10;2.60;;;;;;;;;;491070;240;27567;-70
2021/07/18 07:00:19;;;;;;;4.57;2.83;;;;;;;;;;491042;241;27941;-70
2021/07/18 07:02:21;;;;;;;3.90;2.40;;;;;;;;;;491060;241;27519;-71
2021/07/18 07:04:23;;;;;;;3.40;2.63;;;;;;;;;;491067;241;27850;-70
2021/07/18 07:06:25;;;;;;;4.07;2.77;;;;;;;;;;491050;241;27381;-70
2021/07/18 07:08:27;;;;;;;2.70;2.50;;;;;;;;;;491053;241;27873;-70
2021/07/18 07:10:29;;;;;;;2.37;2.17;;;;;;;;;;491099;241;27582;-70
2021/07/18 07:12:31;;;;;;;5.63;2.47;;;;;;;;;;491076;241;27937;-70
2021/07/18 07:14:33;;;;;;;3.00;2.60;;;;;;;;;;491078;240;27384;-70
2021/07/18 07:16:36;;;;;;;3.03;2.73;;;;;;;;;;491000;241;28680;-70
2021/07/18 07:18:38;;;;;;;5.07;2.67;;;;;;;;;;491001;241;27478;-72
2021/07/18 07:20:40;;;;;;;2.90;2.60;;;;;;;;;;491029;241;28042;-69
2021/07/18 07:22:42;;;;;;;4.33;2.50;;;;;;;;;;491082;240;27485;-69
2021/07/18 07:24:44;;;;;;;3.70;2.37;;;;;;;;;;491083;241;27997;-71
2021/07/18 07:26:46;;;;;;;2.77;2.47;;;;;;;;;;491079;241;27526;-69
2021/07/18 07:28:48;;;;;;;3.70;2.47;;;;;;;;;;491066;241;28029;-69
2021/07/18 07:30:52;;;;;;;2.43;2.33;;;;;;;;;;490965;240;27451;-71
2021/07/18 07:32:52;;;;;;;2.60;2.20;;;;;;;;;;490846;242;27988;-71
2021/07/18 07:34:54;;;;;;;3.40;2.07;;;;;;;;;;490882;241;27403;-71
2021/07/18 07:36:57;;;;;;;3.63;2.20;;;;;;;;;;490835;241;27975;-71
2021/07/18 07:38:59;;;;;;;2.57;2.37;;;;;;;;;;490997;241;27496;-70
2021/07/18 07:41:01;;;;;;;2.53;2.40;;;;;;;;;;491053;241;27893;-72
2021/07/18 07:43:03;;;;;;;2.27;2.07;;;;;;;;;;491038;240;27407;-71
2021/07/18 07:45:05;;;;;;;2.17;1.97;;;;;;;;;;491040;241;27901;-70
2021/07/18 07:47:07;;;;;;;2.60;2.10;;;;;;;;;;491039;241;27410;-71
2021/07/18 07:49:09;;;;;;;2.77;2.40;;;;;;;;;;491061;241;27915;-69
2021/07/18 07:51:11;;;;;;;3.97;2.47;;;;;;;;;;491067;241;27416;-70
2021/07/18 07:53:14;;;;;;;3.67;2.90;;;;;;;;;;491056;241;27892;-71
2021/07/18 07:55:16;;;;;;;3.23;2.00;;;;;;;;;;491017;241;27503;-72
2021/07/18 07:57:18;;;;;;;3.13;2.30;;;;;;;;;;491042;241;27936;-71
2021/07/18 07:59:20;;;;;;;2.10;2.00;;;;;;;;;;491011;241;27387;-71
2021/07/18 08:01:24;;;;;;;3.77;2.37;;;;;;;;;;491049;241;27822;-71
2021/07/18 08:03:24;;;;;;;4.27;2.50;;;;;;;;;;490965;241;27386;-71
2021/07/18 08:05:26;;;;;;;4.00;2.30;;;;;;;;;;491057;241;27893;-70
2021/07/18 08:07:28;;;;;;;3.00;2.30;;;;;;;;;;491046;241;27387;-70
2021/07/18 08:09:30;;;;;;;2.90;2.40;;;;;;;;;;491047;241;28070;-69
2021/07/18 08:11:33;;;;;;;3.27;2.00;;;;;;;;;;491052;241;27471;-70
2021/07/18 08:13:35;;;;;;;3.70;2.23;;;;;;;;;;491033;241;27827;-71
2021/07/18 08:15:37;;;;;;;2.60;2.40;;;;;;;;;;491028;241;27480;-70
2021/07/18 08:17:39;;;;;;;2.23;1.97;;;;;;;;;;491041;241;27901;-72
2021/07/18 08:19:41;;;;;;;4.40;2.40;;;;;;;;;;491066;241;27391;-71
2021/07/18 08:21:43;;;;;;;2.33;2.10;;;;;;;;;;491054;241;27855;-71
2021/07/18 08:23:49;;;;;;;4.10;2.17;;;;;;;;;;491069;240;27378;-72
2021/07/18 08:25:47;;;;;;;3.53;1.90;;;;;;;;;;490814;242;29792;-70
2021/07/18 08:27:49;;;;;;;4.03;2.50;;;;;;;;;;491033;241;27471;-70
2021/07/18 08:29:52;;;;;;;2.50;2.30;;;;;;;;;;491074;241;28047;-69
2021/07/18 08:32:00;;;;;;;4.87;2.40;;;;;;;;;;491067;241;27485;-69
2021/07/18 08:34:02;;;;;;;2.40;2.20;;;;;;;;;;491046;241;27440;-72
2021/07/18 08:36:04;;;;;;;3.33;2.07;;;;;;;;;;491041;241;27411;-73
2021/07/18 08:38:06;;;;;;;2.77;2.47;;;;;;;;;;490981;241;27604;-71
2021/07/18 08:40:08;;;;;;;4.73;2.53;;;;;;;;;;491075;241;27418;-70
2021/07/18 08:42:10;;;;;;;2.90;2.47;;;;;;;;;;491065;241;27419;-71
2021/07/18 08:44:12;;;;;;;2.43;2.00;;;;;;;;;;490270;240;27340;-71
2021/07/18 08:46:18;;;;;;;4.73;2.50;;;;;;;;;;492933;240;27502;-71
2021/07/18 08:48:17;;;;;;;5.10;2.40;;;;;;;;;;492940;240;27503;-71
2021/07/18 08:50:19;;;;;;;3.67;2.33;;;;;;;;;;493848;240;27475;-71
2021/07/18 08:52:21;;;;;;;2.33;2.00;;;;;;;;;;493858;240;27900;-71
2021/07/18 08:54:26;;;;;;;3.60;2.63;;;;;;;;;;493816;240;27478;-71
2021/07/18 08:56:35;;;;;;;2.67;2.20;;;;;;;;;;493856;240;28002;-71
2021/07/18 08:58:33;;;;;;;3.70;2.00;;;;;;;;;;493312;240;27470;-71
2021/07/18 09:00:35;;;;;;;3.20;2.43;;;;;;;;;;493840;240;27378;-71
2021/07/18 09:02:37;;;;;;;4.93;1.93;;;;;;;;;;493853;240;27391;-71
2021/07/18 09:04:39;;;;;;;4.50;2.10;;;;;;;;;;493784;240;27434;-71
2021/07/18 09:06:41;;;;;;;2.47;2.27;;;;;;;;;;493851;240;27395;-71
2021/07/18 09:08:43;;;;;;;3.77;2.30;;;;;;;;;;493834;240;27392;-71
2021/07/18 09:10:45;;;;;;;3.53;2.30;;;;;;;;;;493838;240;27382;-71
2021/07/18 09:12:48;;;;;;;3.40;1.83;;;;;;;;;;493823;240;27441;-71
2021/07/18 09:14:50;;;;;;;9.43;2.23;;;;;;;;;;493835;240;27352;-71
2021/07/18 09:16:52;;;;;;;4.43;2.00;;;;;;;;;;493834;240;27732;-70
2021/07/18 09:18:54;;;;;;;3.77;2.30;;;;;;;;;;493858;240;27446;-71
2021/07/18 09:20:56;;;;;;;2.77;2.20;;;;;;;;;;493858;240;27383;-71
2021/07/18 09:22:58;;;;;;;5.30;2.40;;;;;;;;;;493856;240;27490;-71
2021/07/18 09:25:00;;;;;;;3.63;2.10;;;;;;;;;;493844;240;27402;-71
2021/07/18 09:27:02;;;;;;;2.60;2.13;;;;;;;;;;493840;240;27435;-71
2021/07/18 09:29:04;;;;;;;4.70;2.43;;;;;;;;;;493839;240;27355;-71
2021/07/18 09:31:07;;;;;;;5.23;2.47;;;;;;;;;;493844;240;27355;-71
2021/07/18 09:33:09;;;;;;;4.30;2.30;;;;;;;;;;493837;240;27407;-71
2021/07/18 09:35:11;;;;;;;2.40;1.80;;;;;;;;;;493849;240;27344;-71
2021/07/18 09:37:13;;;;;;;4.97;2.27;;;;;;;;;;493853;240;27436;-71
2021/07/18 09:39:15;;;;;;;2.10;1.90;;;;;;;;;;493856;240;27427;-71
2021/07/18 09:41:17;;;;;;;3.00;1.83;;;;;;;;;;493841;240;27880;-71
2021/07/18 09:43:19;;;;;;;3.03;2.23;;;;;;;;;;493837;240;27390;-71
2021/07/18 09:45:21;;;;;;;5.30;2.60;;;;;;;;;;494144;240;27517;-71
2021/07/18 09:47:23;;;;;;;3.13;1.87;;;;;;;;;;494810;239;27569;-71
2021/07/18 09:49:26;;;;;;;5.00;2.30;;;;;;;;;;494734;239;27510;-71
2021/07/18 09:51:28;;;;;;;3.60;2.20;;;;;;;;;;494766;240;27504;-71
2021/07/18 09:53:30;;;;;;;2.17;2.00;;;;;;;;;;494756;240;27510;-71
2021/07/18 09:55:32;;;;;;;3.10;2.50;;;;;;;;;;494744;240;27565;-71
2021/07/18 09:57:34;;;;;;;2.47;2.10;;;;;;;;;;494766;240;27508;-71
2021/07/18 09:59:37;;;;;;;3.20;2.00;;;;;;;;;;494768;240;27484;-71
2021/07/18 10:01:38;;;;;;;4.37;2.50;;;;;;;;;;494764;240;27592;-71
2021/07/18 10:03:41;;;;;;;6.33;2.20;;;;;;;;;;494771;240;27489;-71
2021/07/18 10:05:43;;;;;;;2.50;2.20;;;;;;;;;;494761;240;27517;-71
2021/07/18 10:07:45;;;;;;;3.73;2.50;;;;;;;;;;494738;240;27481;-71
2021/07/18 10:09:47;;;;;;;3.10;2.10;;;;;;;;;;494685;240;27514;-71
2021/07/18 10:11:49;;;;;;;2.40;2.20;;;;;;;;;;494763;240;27470;-71
2021/07/18 10:13:51;;;;;;;3.73;2.40;;;;;;;;;;494773;240;27457;-72
2021/07/18 10:15:53;;;;;;;4.10;2.40;;;;;;;;;;494756;240;27446;-71
2021/07/18 10:17:56;;;;;;;4.57;2.63;;;;;;;;;;494764;240;27500;-71
2021/07/18 10:19:57;;;;;;;4.27;2.70;;;;;;;;;;494707;239;27524;-71
2021/07/18 10:21:59;;;;;;;3.47;2.93;;;;;;;;;;494754;240;27469;-71
2021/07/18 10:24:02;;;;;;;2.70;2.37;;;;;;;;;;494774;240;27475;-71
2021/07/18 10:26:04;;;;;;;3.60;2.30;;;;;;;;;;494759;240;27460;-72
2021/07/18 10:28:06;;;;;;;3.00;2.33;;;;;;;;;;494784;240;27451;-71
2021/07/18 10:30:08;;;;;;;5.47;2.50;;;;;;;;;;494757;240;27515;-71
2021/07/18 10:32:10;;;;;;;3.40;2.27;;;;;;;;;;494764;240;27450;-70
2021/07/18 10:34:12;;;;;;;2.80;2.43;;;;;;;;;;494753;240;27472;-71
2021/07/18 10:36:14;;;;;;;5.20;2.67;;;;;;;;;;494771;240;27550;-71
2021/07/18 10:38:16;;;;;;;2.47;2.23;;;;;;;;;;494765;240;27470;-71
2021/07/18 10:40:21;;;;;;;2.57;2.20;;;;;;;;;;494767;240;27494;-71
2021/07/18 10:42:21;;;;;;;3.50;2.17;;;;;;;;;;494605;240;27578;-71
2021/07/18 10:44:23;;;;;;;3.90;2.50;;;;;;;;;;494747;240;27502;-71
2021/07/18 10:46:25;;;;;;;2.97;2.30;;;;;;;;;;494745;240;27842;-71
2021/07/18 10:48:27;;;;;;;3.27;1.80;;;;;;;;;;494772;240;27502;-71
2021/07/18 10:50:29;;;;;;;5.40;1.77;;;;;;;;;;494759;240;27549;-71
2021/07/18 10:52:31;;;;;;;2.60;1.73;;;;;;;;;;494776;240;27490;-71
2021/07/18 10:54:33;;;;;;;3.70;1.97;;;;;;;;;;494694;240;27491;-71
2021/07/18 10:56:35;;;;;;;2.73;2.10;;;;;;;;;;494759;240;27569;-71
2021/07/18 10:58:37;;;;;;;2.00;1.80;;;;;;;;;;494765;240;27608;-71
2021/07/18 11:00:40;;;;;;;1.70;1.60;;;;;;;;;;494749;240;27588;-71
2021/07/18 11:02:42;;;;;;;1.87;1.77;;;;;;;;;;494744;240;27508;-71
2021/07/18 11:04:44;;;;;;;3.70;1.80;;;;;;;;;;494750;240;27546;-71
2021/07/18 11:06:59;;;;;;;1.90;1.80;;;;;;;;;;506708;233;35805;-72
2021/07/18 11:09:01;;;;;;;3.87;2.00;;;;;;;;;;503261;236;27940;-71
2021/07/18 11:11:03;;;;;;;1.50;1.40;;;;;;;;;;503260;236;27461;-71
2021/07/18 11:13:05;;;;;;;2.77;1.67;;;;;;;;;;503281;236;27910;-71
2021/07/18 11:15:07;;;;;;;2.57;1.90;;;;;;;;;;503253;236;27557;-71
2021/07/18 11:17:10;;;;;;;1.90;1.80;;;;;;;;;;503270;236;27541;-71
2021/07/18 11:19:11;;;;;;;1.90;1.70;;;;;;;;;;503237;236;27367;-71
2021/07/18 11:21:13;;;;;;;1.83;1.57;;;;;;;;;;503298;236;27463;-71
2021/07/18 11:23:16;;;;;;;1.70;1.60;;;;;;;;;;503278;236;27498;-71
2021/07/18 11:25:18;;;;;;;1.70;1.57;;;;;;;;;;503272;236;28057;-71
2021/07/18 11:27:20;;;;;;;3.13;1.80;;;;;;;;;;503269;236;27494;-71
2021/07/18 11:29:22;;;;;;;3.73;1.70;;;;;;;;;;503276;236;28078;-71
2021/07/18 11:31:24;;;;;;;1.57;1.47;;;;;;;;;;503272;236;27482;-71
2021/07/18 11:33:26;;;;;;;1.47;1.37;;;;;;;;;;503268;236;28048;-71
2021/07/18 11:35:28;;;;;;;2.20;1.50;;;;;;;;;;503280;236;27487;-71
2021/07/18 11:37:31;;;;;;;1.63;1.40;;;;;;;;;;503285;236;28021;-71
2021/07/18 11:39:32;;;;;;;4.03;1.50;;;;;;;;;;503169;236;27490;-71
2021/07/18 11:41:35;;;;;;;2.40;1.70;;;;;;;;;;503280;236;27865;-71
2021/07/18 11:43:37;;;;;;;1.60;1.50;;;;;;;;;;503253;236;27490;-71
2021/07/18 11:45:39;;;;;;;2.73;1.67;;;;;;;;;;503218;236;27963;-71
2021/07/18 11:47:41;;;;;;;3.70;1.83;;;;;;;;;;503268;236;27487;-71
2021/07/18 11:49:43;;;;;;;2.00;1.60;;;;;;;;;;503266;236;27962;-71
2021/07/18 11:51:48;;;;;;;3.07;1.40;;;;;;;;;;503261;236;27495;-71
2021/07/18 11:53:50;;;;;;;3.10;1.70;;;;;;;;;;503253;236;27455;-71
2021/07/18 11:55:52;;;;;;;2.43;1.80;;;;;;;;;;503260;236;27914;-71
2021/07/18 11:57:54;;;;;;;2.13;1.80;;;;;;;;;;503296;236;27366;-71
2021/07/18 11:59:56;;;;;;;2.87;1.63;;;;;;;;;;503266;236;28707;-71
2021/07/18 12:01:58;;;;;;;1.60;1.50;;;;;;;;;;503279;236;27468;-71
2021/07/18 12:04:01;;;;;;;1.70;1.60;;;;;;;;;;503267;236;27949;-71
2021/07/18 12:06:03;;;;;;;2.93;1.70;;;;;;;;;;503249;236;27475;-71
2021/07/18 12:08:05;;;;;;;2.20;2.00;;;;;;;;;;503254;236;28005;-71
2021/07/18 12:10:07;;;;;;;2.60;1.60;;;;;;;;;;503272;236;27526;-71
2021/07/18 12:12:09;;;;;;;2.20;1.70;;;;;;;;;;503262;236;28040;-70